Time;durP1;ratioP1;P1;durP2;ratioP2;P2;SDS_P1;SDS_P2;PMS_P1;PMS_P2;Temp;Humidity;BMP_temperature;BMP_pressure;BME280_temperature;BME280_humidity;BME280_pressure;Samples;Min_cycle;Max_cycle;Signal;HPM_P1;HPM_P2
2021/05/12 00:01:51;;;;;;;13.70;4.53;;;;;;;13.86;74.59;97005.63;4885527;29;20071;-73
2021/05/12 00:04:17;;;;;;;7.70;4.50;;;;;;;13.60;76.31;96993.50;4879260;29;20092;-73
2021/05/12 00:06:43;;;;;;;5.80;4.43;;;;;;;13.40;77.48;96982.56;4873059;29;20105;-76
2021/05/12 00:09:08;;;;;;;11.45;4.50;;;;;;;13.26;78.32;96993.56;4848953;29;20469;-76
2021/05/12 00:11:34;;;;;;;9.13;4.43;;;;;;;13.13;79.35;96989.34;4865886;29;20035;-75
2021/05/12 00:14:00;;;;;;;9.38;4.40;;;;;;;12.95;80.26;96981.75;4857549;29;20077;-75
2021/05/12 00:16:26;;;;;;;7.90;4.32;;;;;;;12.91;81.15;96991.03;4878629;29;20024;-75
2021/05/12 00:18:51;;;;;;;6.18;4.53;;;;;;;12.62;82.25;96968.34;4868757;29;20408;-75
2021/05/12 00:24:12;;;;;;;8.95;4.20;;;;;;;12.51;83.57;96979.09;4862191;29;20512;-75
2021/05/12 00:26:38;;;;;;;10.73;4.70;;;;;;;12.47;84.05;96972.25;4853217;29;20025;-75
2021/05/12 00:29:05;;;;;;;6.70;4.30;;;;;;;12.38;84.30;96981.00;4846259;29;20410;-75
2021/05/12 00:31:31;;;;;;;8.07;4.45;;;;;;;12.26;85.14;96974.78;4879770;29;20028;-75
2021/05/12 00:33:57;;;;;;;15.63;4.10;;;;;;;12.15;86.45;96969.38;4858359;29;20029;-75
2021/05/12 00:36:22;;;;;;;6.47;4.10;;;;;;;12.09;87.76;96975.22;4877026;29;20028;-75
2021/05/12 00:38:48;;;;;;;12.90;4.80;;;;;;;11.99;88.28;96960.84;4861587;29;20025;-75
2021/05/12 00:41:14;;;;;;;9.35;4.35;;;;;;;11.92;89.83;96960.44;4853962;29;20036;-75
2021/05/12 00:43:39;;;;;;;7.13;4.18;;;;;;;11.96;88.67;96955.72;4853064;29;20116;-75
2021/05/12 00:46:05;;;;;;;7.55;4.47;;;;;;;11.97;90.07;96953.91;4869206;29;20082;-75
2021/05/12 00:48:31;;;;;;;6.57;4.35;;;;;;;11.97;89.40;96940.50;4856053;29;20117;-75
2021/05/12 00:50:56;;;;;;;7.25;4.20;;;;;;;12.00;89.73;96942.94;4856838;29;20032;-75
2021/05/12 00:53:40;;;;;;;8.60;4.70;;;;;;;11.86;90.48;96933.25;4855143;29;20531;-75
2021/05/12 00:56:07;;;;;;;10.02;4.15;;;;;;;11.89;90.63;96941.06;4853526;29;20048;-75
2021/05/12 00:58:33;;;;;;;7.50;4.25;;;;;;;11.91;90.09;96936.44;4871528;29;20068;-75
2021/05/12 01:00:58;;;;;;;10.32;4.78;;;;;;;11.95;90.38;96937.91;4864603;29;20056;-75
2021/05/12 01:03:24;;;;;;;12.52;4.35;;;;;;;11.88;91.46;96937.53;4878448;29;20037;-75
2021/05/12 01:05:49;;;;;;;13.43;4.70;;;;;;;11.90;91.11;96940.09;4861374;29;20104;-75
2021/05/12 01:08:22;;;;;;;8.43;4.40;;;;;;;11.79;91.58;96926.66;4868925;29;20037;-75
2021/05/12 01:10:48;;;;;;;6.93;4.53;;;;;;;11.78;92.14;96936.53;4857357;29;20460;-75
2021/05/12 01:13:13;;;;;;;6.57;4.25;;;;;;;11.80;92.45;96929.25;4864998;29;20111;-75
2021/05/12 01:15:40;;;;;;;12.50;4.70;;;;;;;11.77;92.23;96932.16;4876440;29;20052;-75
2021/05/12 01:18:17;;;;;;;8.77;4.70;;;;;;;11.83;91.93;96936.19;4868688;29;20048;-75
2021/05/12 01:20:55;;;;;;;9.50;4.45;;;;;;;11.85;92.15;96934.22;4891128;29;20029;-75
2021/05/12 01:23:23;;;;;;;8.77;4.38;;;;;;;11.81;92.33;96930.91;4896081;29;20493;-76
2021/05/12 01:25:51;;;;;;;5.68;4.47;;;;;;;11.80;91.24;96914.97;4885707;29;20405;-76
2021/05/12 01:28:18;;;;;;;10.02;4.72;;;;;;;11.78;90.67;96922.28;4875956;29;20036;-75
2021/05/12 01:31:03;;;;;;;6.45;4.28;;;;;;;11.76;90.65;96922.41;4887773;29;20497;-75
2021/05/12 01:33:29;;;;;;;26.27;4.60;;;;;;;11.71;90.77;96919.22;4889749;29;20497;-75
2021/05/12 01:35:55;;;;;;;8.02;4.05;;;;;;;11.65;91.24;96914.31;4883751;29;20036;-75
2021/05/12 01:38:21;;;;;;;6.70;4.32;;;;;;;11.58;91.17;96905.03;4876552;29;20033;-75
2021/05/12 01:40:47;;;;;;;14.23;4.38;;;;;;;11.62;91.41;96916.34;4852413;29;20020;-76
2021/05/12 01:43:13;;;;;;;10.68;4.80;;;;;;;11.57;91.63;96905.97;4875392;29;20039;-75
2021/05/12 01:45:39;;;;;;;6.88;4.13;;;;;;;11.52;91.82;96912.66;4858432;29;20457;-75
2021/05/12 01:48:09;;;;;;;9.50;4.40;;;;;;;11.41;91.89;96903.59;4872725;29;20033;-75
2021/05/12 01:50:36;;;;;;;9.15;4.50;;;;;;;11.48;91.84;96901.31;4880101;29;20119;-75
2021/05/12 01:53:02;;;;;;;7.35;4.57;;;;;;;11.39;92.02;96896.66;4869931;29;20120;-75
2021/05/12 01:55:27;;;;;;;10.75;4.40;;;;;;;11.45;92.56;96904.22;4876042;29;20060;-77
2021/05/12 01:57:53;;;;;;;32.90;5.40;;;;;;;11.42;93.15;96915.19;4879776;29;20040;-76
2021/05/12 02:00:21;;;;;;;27.17;5.13;;;;;;;11.44;92.91;96916.75;4871609;29;20454;-77
2021/05/12 02:02:47;;;;;;;10.88;4.38;;;;;;;11.44;92.53;96913.25;4865629;29;20032;-77
2021/05/12 02:05:12;;;;;;;10.05;4.75;;;;;;;11.27;93.15;96897.59;4878026;29;20044;-76
2021/05/12 02:07:38;;;;;;;11.00;5.25;;;;;;;11.33;92.85;96903.34;4881347;29;20036;-76
2021/05/12 02:10:04;;;;;;;5.95;4.57;;;;;;;11.33;92.85;96908.69;4875314;29;20036;-76
2021/05/12 02:12:30;;;;;;;10.80;4.82;;;;;;;11.23;93.49;96902.31;4875070;29;20100;-76
2021/05/12 02:14:55;;;;;;;8.68;4.80;;;;;;;11.30;94.11;96921.47;4872090;29;20036;-76
2021/05/12 02:17:21;;;;;;;12.40;4.75;;;;;;;11.36;93.76;96910.28;4872306;29;20034;-77
2021/05/12 02:19:47;;;;;;;10.00;5.13;;;;;;;11.27;94.16;96903.81;4896237;29;20068;-77
2021/05/12 02:22:13;;;;;;;8.93;5.35;;;;;;;11.17;95.08;96897.44;4856781;29;20105;-78
2021/05/12 02:24:39;;;;;;;13.25;5.28;;;;;;;11.19;94.95;96891.97;4873101;29;20040;-77
2021/05/12 02:27:05;;;;;;;17.45;6.78;;;;;;;11.09;95.13;96883.78;4875088;29;20047;-77
2021/05/12 02:29:30;;;;;;;12.20;5.20;;;;;;;11.07;95.57;96885.72;4859984;29;20052;-77
2021/05/12 02:31:56;;;;;;;7.55;5.35;;;;;;;11.10;95.52;96890.84;4879250;29;20044;-77
2021/05/12 02:34:21;;;;;;;10.57;5.22;;;;;;;11.04;95.35;96885.94;4855371;29;20025;-78
2021/05/12 02:36:47;;;;;;;16.80;5.70;;;;;;;11.04;95.69;96890.44;4867204;29;20053;-77
2021/05/12 02:39:12;;;;;;;12.77;5.88;;;;;;;10.93;96.39;96882.34;4874684;29;20031;-76
2021/05/12 02:41:38;;;;;;;13.52;5.25;;;;;;;10.92;96.91;96880.66;4873084;29;20514;-77
2021/05/12 02:44:04;;;;;;;11.30;4.95;;;;;;;10.93;96.52;96885.88;4855976;29;20485;-77
2021/05/12 02:46:30;;;;;;;15.95;5.18;;;;;;;10.99;96.13;96890.78;4871087;29;20080;-77
2021/05/12 02:48:55;;;;;;;11.65;5.88;;;;;;;10.84;96.86;96883.88;4890569;29;20072;-77
2021/05/12 02:51:21;;;;;;;8.52;5.72;;;;;;;10.80;96.95;96879.72;4853628;29;20183;-76
2021/05/12 02:53:47;;;;;;;10.18;5.20;;;;;;;10.88;96.61;96880.00;4878950;29;20040;-77
2021/05/12 02:56:12;;;;;;;18.02;5.20;;;;;;;10.81;97.38;96879.59;4876056;29;20116;-76
2021/05/12 02:58:38;;;;;;;11.63;5.30;;;;;;;10.83;96.87;96888.38;4874540;29;20126;-76
2021/05/12 03:01:06;;;;;;;13.60;5.57;;;;;;;10.85;97.00;96880.25;4858904;29;20576;-78
2021/05/12 03:03:32;;;;;;;8.13;6.25;;;;;;;10.87;97.25;96876.47;4858345;29;20421;-76
2021/05/12 03:05:57;;;;;;;18.15;6.78;;;;;;;10.89;96.47;96868.31;4888759;29;20033;-76
2021/05/12 03:08:23;;;;;;;13.77;5.63;;;;;;;10.92;96.93;96889.50;4855588;29;20052;-76
2021/05/12 03:10:48;;;;;;;18.70;6.55;;;;;;;10.95;95.88;96878.56;4871787;29;20033;-76
2021/05/12 03:13:14;;;;;;;10.90;5.40;;;;;;;10.94;95.42;96871.53;4886375;29;20041;-77
2021/05/12 03:15:40;;;;;;;13.73;5.90;;;;;;;10.98;96.56;96881.06;4870615;29;20060;-76
2021/05/12 03:18:08;;;;;;;23.67;6.93;;;;;;;10.95;96.46;96869.72;4873113;29;20532;-76
2021/05/12 03:20:34;;;;;;;21.98;8.35;;;;;;;10.93;97.11;96866.28;4867301;29;20037;-77
2021/05/12 03:23:00;;;;;;;24.17;8.50;;;;;;;11.00;96.42;96868.41;4864915;29;20048;-77
2021/05/12 03:25:26;;;;;;;26.77;10.77;;;;;;;10.98;96.26;96870.34;4874750;29;20497;-77
2021/05/12 03:27:52;;;;;;;23.25;10.43;;;;;;;11.07;96.29;96864.31;4873814;29;20485;-77
2021/05/12 03:30:22;;;;;;;29.88;12.27;;;;;;;11.11;96.44;96875.59;4862878;29;20028;-76
2021/05/12 03:32:48;;;;;;;15.40;7.57;;;;;;;11.05;96.54;96871.56;4854773;29;20115;-76
2021/05/12 03:35:14;;;;;;;12.23;5.70;;;;;;;11.02;96.42;96873.63;4866328;29;20088;-79
2021/05/12 03:37:39;;;;;;;19.50;5.50;;;;;;;11.06;96.54;96873.28;4852801;29;20570;-80
2021/05/12 03:40:07;;;;;;;11.00;6.07;;;;;;;11.05;96.62;96876.94;4851668;29;20064;-88
2021/05/12 03:42:32;;;;;;;23.77;7.00;;;;;;;11.12;96.05;96870.16;4862829;29;20452;-81
2021/05/12 03:44:59;;;;;;;9.98;6.50;;;;;;;11.03;96.45;96868.16;4867092;29;20143;-81
2021/05/12 03:47:25;;;;;;;28.25;7.38;;;;;;;11.13;96.30;96871.88;4855209;29;20033;-81
2021/05/12 03:49:50;;;;;;;17.08;7.18;;;;;;;11.26;95.25;96875.31;4863703;29;20561;-80
2021/05/12 03:52:16;;;;;;;13.02;7.00;;;;;;;11.22;94.79;96847.09;4849457;29;20064;-82
2021/05/12 03:54:41;;;;;;;20.42;6.95;;;;;;;11.43;93.59;96866.88;4890140;29;20533;-80
2021/05/12 03:57:07;;;;;;;13.60;7.40;;;;;;;11.38;94.28;96855.63;4881511;29;20025;-80
2021/05/12 03:59:33;;;;;;;16.15;8.43;;;;;;;11.63;93.88;96869.84;4882224;29;20031;-81
2021/05/12 04:01:58;;;;;;;16.45;8.25;;;;;;;11.73;93.11;96862.81;4874503;29;20516;-80
2021/05/12 04:04:24;;;;;;;20.20;7.93;;;;;;;11.86;91.85;96868.94;4874693;29;20405;-81
2021/05/12 04:06:49;;;;;;;26.85;8.48;;;;;;;11.81;91.56;96853.22;4860510;29;20414;-78
2021/05/12 04:09:15;;;;;;;18.98;8.77;;;;;;;12.00;89.67;96860.66;4866432;29;20032;-81
2021/05/12 04:11:44;;;;;;;17.42;7.88;;;;;;;12.07;88.86;96864.59;4874707;29;20504;-80
2021/05/12 04:14:10;;;;;;;13.55;6.15;;;;;;;12.16;88.58;96871.03;4859369;29;20108;-76
2021/05/12 04:16:36;;;;;;;20.55;7.35;;;;;;;12.24;88.38;96863.25;4868722;29;20564;-77
2021/05/12 04:19:03;;;;;;;21.20;6.22;;;;;;;12.35;86.87;96863.25;4870134;29;20165;-77
2021/05/12 04:21:30;;;;;;;23.90;6.75;;;;;;;12.60;87.21;96862.13;4891259;29;20028;-76
2021/05/12 04:23:55;;;;;;;12.48;6.47;;;;;;;14.02;77.76;96858.16;4873675;29;20035;-77
2021/05/12 04:26:21;;;;;;;16.27;5.72;;;;;;;15.59;70.09;96859.19;4878303;29;20413;-77
2021/05/12 04:28:46;;;;;;;14.93;5.43;;;;;;;16.84;64.93;96869.66;4847375;29;20072;-76
2021/05/12 04:31:12;;;;;;;18.92;5.50;;;;;;;16.27;65.19;96860.78;4870387;29;20029;-76
2021/05/12 04:33:41;;;;;;;27.30;6.28;;;;;;;15.66;67.77;96865.69;4886870;29;20072;-75
2021/05/12 04:36:06;;;;;;;23.23;6.97;;;;;;;15.39;69.70;96862.81;4848053;29;20033;-77
2021/05/12 04:38:32;;;;;;;12.43;5.32;;;;;;;15.02;70.53;96865.34;4873155;29;20084;-76
2021/05/12 04:40:59;;;;;;;21.17;6.57;;;;;;;14.86;71.39;96865.03;4874585;29;20055;-77
2021/05/12 04:43:25;;;;;;;17.17;6.18;;;;;;;14.83;72.19;96862.59;4856821;29;20028;-76
2021/05/12 04:46:02;;;;;;;39.30;7.22;;;;;;;14.62;72.76;96868.06;4844045;29;20134;-76
2021/05/12 04:48:27;;;;;;;26.05;6.30;;;;;;;14.56;72.91;96858.69;4859031;29;20040;-76
2021/05/12 04:50:53;;;;;;;53.10;8.13;;;;;;;14.40;73.73;96858.34;4844029;29;20030;-75
2021/05/12 04:53:18;;;;;;;27.50;6.88;;;;;;;14.52;74.07;96862.66;4835508;29;20029;-76
2021/05/12 04:55:44;;;;;;;11.05;5.60;;;;;;;14.74;73.49;96855.34;4856075;29;20032;-76
2021/05/12 04:58:10;;;;;;;16.27;6.72;;;;;;;15.05;72.51;96851.59;4861262;29;20029;-76
2021/05/12 05:00:35;;;;;;;21.08;6.35;;;;;;;15.20;70.91;96852.88;4854818;29;20501;-77
2021/05/12 05:03:03;;;;;;;9.70;6.93;;;;;;;15.29;71.28;96840.44;4854437;29;20108;-76
2021/05/12 05:05:29;;;;;;;12.77;6.80;;;;;;;15.44;70.01;96845.22;4838676;29;20402;-76
2021/05/12 05:07:54;;;;;;;20.15;7.00;;;;;;;15.69;69.15;96844.69;4863315;29;20040;-75
2021/05/12 05:10:20;;;;;;;9.32;6.80;;;;;;;15.83;68.47;96837.16;4866189;29;20084;-75
2021/05/12 05:12:45;;;;;;;14.38;7.85;;;;;;;16.05;67.02;96842.22;4862656;29;20040;-76
2021/05/12 05:15:12;;;;;;;10.20;6.53;;;;;;;15.94;66.96;96836.97;4841368;29;20037;-76
2021/05/12 05:17:39;;;;;;;17.75;6.85;;;;;;;16.89;64.53;96834.94;4848668;29;20036;-75
2021/05/12 05:20:06;;;;;;;14.77;6.18;;;;;;;18.17;60.21;96835.28;4857192;29;20033;-76
2021/05/12 05:22:33;;;;;;;11.88;5.82;;;;;;;20.21;53.65;96830.28;4849360;29;20033;-76
2021/05/12 05:24:58;;;;;;;14.18;5.60;;;;;;;21.42;48.52;96827.97;4841330;29;20029;-77
2021/05/12 05:27:24;;;;;;;10.20;4.72;;;;;;;20.73;48.87;96834.25;4865131;29;20048;-77
2021/05/12 05:29:50;;;;;;;19.17;5.32;;;;;;;19.65;52.80;96834.72;4833848;29;20048;-76
2021/05/12 05:32:16;;;;;;;7.47;4.18;;;;;;;18.69;53.30;96830.69;4856470;29;20111;-75
2021/05/12 05:34:42;;;;;;;5.65;3.75;;;;;;;19.79;50.61;96836.75;4837972;29;20569;-76
2021/05/12 05:37:08;;;;;;;7.32;3.33;;;;;;;21.25;45.99;96828.25;4837605;29;20029;-76
2021/05/12 05:39:36;;;;;;;10.73;3.65;;;;;;;22.38;43.40;96833.69;4872886;29;20073;-76
2021/05/12 05:42:06;;;;;;;6.70;4.10;;;;;;;24.44;39.71;96843.13;4850044;29;20032;-76
2021/05/12 05:44:32;;;;;;;13.48;3.90;;;;;;;26.39;35.84;96832.41;4852091;29;20072;-76
2021/05/12 05:46:58;;;;;;;8.90;3.78;;;;;;;27.03;34.12;96838.03;4881550;29;20032;-76
2021/05/12 05:49:25;;;;;;;12.95;4.15;;;;;;;27.96;32.90;96851.16;4861286;29;20048;-76
2021/05/12 05:51:52;;;;;;;13.18;3.47;;;;;;;28.74;30.79;96843.44;4860358;29;20125;-76
2021/05/12 05:54:18;;;;;;;16.45;4.03;;;;;;;28.33;31.45;96848.66;4883597;29;20481;-76
2021/05/12 05:56:43;;;;;;;8.60;4.28;;;;;;;29.85;28.96;96837.75;4881993;29;20060;-76
2021/05/12 05:59:09;;;;;;;9.75;3.95;;;;;;;31.19;27.28;96848.97;4882375;29;20111;-77
2021/05/12 06:01:34;;;;;;;13.73;4.88;;;;;;;32.28;26.18;96847.13;4855626;29;20123;-77
2021/05/12 06:04:00;;;;;;;11.80;4.43;;;;;;;32.09;26.14;96830.72;4871973;29;20103;-76
2021/05/12 06:06:25;;;;;;;21.77;5.78;;;;;;;33.09;24.94;96850.25;4875405;29;20033;-76
2021/05/12 06:08:52;;;;;;;18.90;4.90;;;;;;;33.50;23.96;96850.84;4872983;29;20557;-75
2021/05/12 06:11:18;;;;;;;12.02;4.32;;;;;;;34.30;23.60;96839.91;4882814;29;20480;-76
2021/05/12 06:13:44;;;;;;;7.43;3.75;;;;;;;33.55;23.59;96840.63;4874565;29;20029;-76
2021/05/12 06:16:10;;;;;;;6.20;3.47;;;;;;;32.51;23.91;96834.00;4858192;29;20105;-76
2021/05/12 06:18:35;;;;;;;8.00;3.20;;;;;;;31.37;25.28;96837.78;4863696;29;20045;-76
2021/05/12 06:21:01;;;;;;;17.20;4.15;;;;;;;32.46;24.99;96833.88;4871572;29;20469;-75
2021/05/12 06:23:26;;;;;;;10.27;3.47;;;;;;;32.64;23.65;96825.38;4863912;29;20568;-76
2021/05/12 06:25:52;;;;;;;8.65;3.28;;;;;;;31.75;25.13;96822.56;4861094;29;20401;-75
2021/05/12 06:28:19;;;;;;;8.15;3.08;;;;;;;32.27;24.48;96818.59;4882250;29;20412;-74
2021/05/12 06:30:49;;;;;;;7.35;2.85;;;;;;;30.92;25.34;96814.56;4882727;29;20029;-75
2021/05/12 06:33:16;;;;;;;3.78;2.42;;;;;;;32.46;23.90;96820.03;4852407;29;20033;-75
2021/05/12 06:35:41;;;;;;;7.68;2.50;;;;;;;33.58;23.46;96803.22;4871529;29;20021;-76
2021/05/12 06:38:07;;;;;;;6.07;2.80;;;;;;;33.35;23.96;96795.97;4894202;29;20029;-77
2021/05/12 06:40:32;;;;;;;8.65;2.92;;;;;;;33.57;23.08;96794.03;4874458;29;20107;-75
2021/05/12 06:43:01;;;;;;;11.98;2.70;;;;;;;33.14;23.69;96792.09;4853993;29;20060;-75
2021/05/12 06:45:27;;;;;;;7.22;2.80;;;;;;;33.24;23.42;96792.22;4871113;29;20052;-76
2021/05/12 06:47:55;;;;;;;7.22;2.63;;;;;;;32.67;24.55;96788.84;4871331;29;20056;-75
2021/05/12 06:50:24;;;;;;;16.73;3.30;;;;;;;34.06;23.60;96789.34;4871071;29;20033;-76
2021/05/12 06:52:53;;;;;;;23.55;4.07;;;;;;;34.67;22.87;96785.25;4855166;29;20036;-76
2021/05/12 06:55:19;;;;;;;10.88;2.80;;;;;;;33.71;24.02;96775.94;4863115;29;20048;-74
2021/05/12 06:57:45;;;;;;;14.90;2.88;;;;;;;33.14;23.73;96763.50;4878725;29;20032;-75
2021/05/12 07:00:11;;;;;;;5.43;2.00;;;;;;;33.18;23.53;96768.31;4869300;29;20032;-76
2021/05/12 07:02:37;;;;;;;6.88;2.35;;;;;;;33.53;22.79;96762.34;4873791;29;20063;-76
2021/05/12 07:05:04;;;;;;;7.78;2.67;;;;;;;34.56;21.87;96761.25;4890814;29;20488;-77
2021/05/12 07:07:29;;;;;;;10.60;3.05;;;;;;;34.47;22.21;96762.84;4873150;29;20048;-77
2021/05/12 07:09:58;;;;;;;10.20;3.17;;;;;;;34.46;22.53;96758.38;4851597;29;20029;-77
2021/05/12 07:12:25;;;;;;;13.07;3.70;;;;;;;34.40;22.91;96755.81;4898774;29;20045;-77
2021/05/12 07:14:50;;;;;;;23.20;5.80;;;;;;;35.24;21.96;96753.97;4862914;29;20043;-77
2021/05/12 07:17:16;;;;;;;12.68;3.85;;;;;;;35.07;22.00;96745.75;4869761;29;20021;-76
2021/05/12 07:19:42;;;;;;;14.88;3.45;;;;;;;36.23;20.90;96756.56;4881925;29;20560;-77
2021/05/12 07:22:08;;;;;;;9.18;3.88;;;;;;;34.75;21.92;96748.63;4865892;29;20040;-78
2021/05/12 07:24:34;;;;;;;13.00;4.63;;;;;;;33.22;23.76;96749.22;4878922;29;20041;-77
2021/05/12 07:26:59;;;;;;;18.45;4.97;;;;;;;32.54;23.96;96742.09;4858584;29;20064;-77
2021/05/12 07:29:25;;;;;;;27.70;6.15;;;;;;;34.74;22.49;96737.78;4881447;29;20041;-77
2021/05/12 07:31:51;;;;;;;15.30;3.72;;;;;;;35.01;22.04;96740.47;4858033;29;20047;-77
2021/05/12 07:34:16;;;;;;;30.85;3.85;;;;;;;34.43;22.97;96739.44;4883886;29;20115;-77
2021/05/12 07:36:42;;;;;;;12.35;2.90;;;;;;;34.05;23.23;96731.31;4864225;29;20115;-77
2021/05/12 07:39:08;;;;;;;49.85;5.43;;;;;;;33.70;23.30;96726.25;4881123;29;20040;-77
2021/05/12 07:41:37;;;;;;;10.18;3.10;;;;;;;32.93;24.05;96731.03;4849560;29;20505;-77
2021/05/12 07:44:04;;;;;;;12.18;3.17;;;;;;;34.90;22.71;96741.50;4874448;29;20052;-77
2021/05/12 07:46:31;;;;;;;7.65;2.97;;;;;;;34.62;22.56;96726.84;4865142;29;20544;-77
2021/05/12 07:48:56;;;;;;;23.65;6.03;;;;;;;35.86;21.99;96746.44;4862082;29;20032;-77
2021/05/12 07:51:22;;;;;;;5.57;2.95;;;;;;;36.12;22.04;96741.75;4893403;29;20033;-77
2021/05/12 07:53:49;;;;;;;8.60;2.80;;;;;;;35.63;22.55;96733.00;4873219;29;20036;-77
2021/05/12 07:56:15;;;;;;;5.47;2.70;;;;;;;36.92;21.29;96745.69;4860132;29;20040;-77
2021/05/12 07:58:40;;;;;;;8.95;2.58;;;;;;;38.81;19.59;96729.38;4886474;29;20532;-78
2021/05/12 08:01:33;;;;;;;13.50;4.40;;;;;;;38.01;19.73;96730.81;4874436;29;20448;-79
2021/05/12 08:03:59;;;;;;;22.77;3.80;;;;;;;37.86;19.53;96722.50;4882457;29;20528;-77
2021/05/12 08:06:24;;;;;;;8.43;2.63;;;;;;;37.16;21.08;96718.03;4874646;29;20032;-77
2021/05/12 08:08:53;;;;;;;12.73;3.75;;;;;;;37.13;20.38;96718.63;4886207;29;20044;-78
2021/05/12 08:11:21;;;;;;;50.90;5.88;;;;;;;36.61;20.63;96707.81;4862086;29;20408;-78
2021/05/12 08:13:49;;;;;;;18.77;3.47;;;;;;;35.32;22.50;96711.69;4885293;29;20103;-77
2021/05/12 08:16:15;;;;;;;5.97;2.63;;;;;;;36.83;20.45;96703.59;4847022;29;20039;-77
2021/05/12 08:18:41;;;;;;;13.00;3.25;;;;;;;37.11;20.01;96690.16;4879529;29;20063;-75
2021/05/12 08:21:07;;;;;;;6.80;2.50;;;;;;;37.67;19.18;96688.81;4880380;29;20512;-76
2021/05/12 08:23:33;;;;;;;4.95;2.65;;;;;;;36.30;20.59;96690.25;4873446;29;20029;-76
2021/05/12 08:25:59;;;;;;;9.35;2.92;;;;;;;36.93;20.64;96697.16;4862085;29;20051;-79
2021/05/12 08:28:25;;;;;;;42.05;5.53;;;;;;;36.14;22.12;96694.16;4883137;29;20510;-77
2021/05/12 08:30:50;;;;;;;7.80;2.38;;;;;;;36.29;21.34;96685.78;4862929;29;20123;-78
2021/05/12 08:33:17;;;;;;;11.93;2.20;;;;;;;37.00;21.53;96681.00;4877463;29;20125;-77
2021/05/12 08:35:45;;;;;;;11.10;2.38;;;;;;;37.05;20.13;96677.34;4854063;29;20065;-78
2021/05/12 08:38:15;;;;;;;4.68;2.05;;;;;;;37.72;19.44;96666.41;4852766;29;20057;-77
2021/05/12 08:40:42;;;;;;;7.28;2.53;;;;;;;37.65;19.32;96670.69;4845712;29;20029;-76
2021/05/12 08:43:08;;;;;;;12.38;2.10;;;;;;;35.51;21.43;96657.22;4853049;29;20525;-76
2021/05/12 08:45:34;;;;;;;11.30;3.72;;;;;;;37.59;20.57;96661.50;4861425;29;20049;-76
2021/05/12 08:48:01;;;;;;;6.22;2.92;;;;;;;37.47;20.63;96656.25;4876781;29;20041;-76
2021/05/12 08:50:27;;;;;;;9.90;2.47;;;;;;;35.95;20.94;96654.00;4869224;29;20029;-78
2021/05/12 08:52:53;;;;;;;9.68;1.80;;;;;;;35.56;20.61;96654.47;4854803;29;20496;-76
2021/05/12 08:55:20;;;;;;;7.57;3.13;;;;;;;35.46;21.66;96653.59;4867561;29;20044;-78
2021/05/12 08:57:46;;;;;;;7.75;2.05;;;;;;;36.63;21.09;96659.03;4869112;29;20024;-77
2021/05/12 09:00:12;;;;;;;3.70;2.10;;;;;;;38.47;19.36;96655.84;4846209;29;20030;-77
2021/05/12 09:02:39;;;;;;;11.13;2.30;;;;;;;37.95;19.37;96646.19;4868428;29;20531;-77
2021/05/12 09:05:07;;;;;;;4.30;2.10;;;;;;;39.01;18.52;96649.97;4876943;29;20044;-77
2021/05/12 09:07:32;;;;;;;2.72;1.95;;;;;;;38.20;18.18;96639.56;4861320;29;20029;-76
2021/05/12 09:09:58;;;;;;;6.03;2.08;;;;;;;38.80;17.86;96649.38;4862661;29;20051;-77
2021/05/12 09:12:24;;;;;;;11.20;2.00;;;;;;;38.75;17.82;96634.56;4851244;29;20082;-77
2021/05/12 09:14:56;;;;;;;10.45;2.60;;;;;;;36.12;20.29;96649.00;4861183;29;20056;-78
2021/05/12 09:17:32;;;;;;;8.30;1.90;;;;;;;37.70;19.38;96645.50;4853437;29;20512;-77
2021/05/12 09:19:58;;;;;;;6.35;2.10;;;;;;;37.81;19.35;96647.13;4870211;29;20071;-77
2021/05/12 09:22:23;;;;;;;14.60;2.63;;;;;;;38.20;18.96;96644.31;4867016;29;20192;-77
2021/05/12 09:24:50;;;;;;;12.85;2.80;;;;;;;38.87;19.58;96644.25;4868815;29;20092;-76
2021/05/12 09:27:17;;;;;;;145.07;8.60;;;;;;;38.20;19.01;96636.78;4879784;29;20131;-77
2021/05/12 09:29:45;;;;;;;8.45;2.65;;;;;;;38.19;19.54;96634.25;4872171;29;20040;-76
2021/05/12 09:32:13;;;;;;;4.95;2.00;;;;;;;35.25;21.24;96636.88;4879542;29;20032;-76
2021/05/12 09:35:05;;;;;;;6.50;2.03;;;;;;;34.83;21.66;96634.13;4896086;29;20048;-77
2021/05/12 09:37:39;;;;;;;8.32;2.00;;;;;;;34.08;22.54;96633.59;4852215;29;20125;-78
2021/05/12 09:40:08;;;;;;;3.20;2.08;;;;;;;35.92;20.85;96635.06;4878958;29;20071;-78
2021/05/12 09:42:35;;;;;;;7.85;2.28;;;;;;;36.83;21.59;96631.06;4864393;29;20041;-78
2021/05/12 09:45:28;;;;;;;7.90;2.30;;;;;;;37.86;20.10;96630.31;4855880;29;20082;-79
2021/05/12 09:47:57;;;;;;;9.75;2.30;;;;;;;37.54;19.20;96625.22;4867861;29;20089;-79
2021/05/12 09:50:27;;;;;;;4.07;2.35;;;;;;;36.24;20.55;96616.97;4862434;29;20060;-79
2021/05/12 09:52:57;;;;;;;11.70;2.40;;;;;;;37.80;21.21;96628.69;4858403;29;20037;-78
2021/05/12 09:55:45;;;;;;;6.90;2.40;;;;;;;38.91;19.15;96625.75;4867591;29;20561;-79
2021/05/12 09:58:20;;;;;;;5.68;3.25;;;;;;;38.46;19.09;96621.44;4903759;29;20024;-79
2021/05/12 10:00:57;;;;;;;6.45;2.67;;;;;;;37.99;20.36;96626.91;4876230;29;20040;-78
2021/05/12 10:03:23;;;;;;;2.95;2.03;;;;;;;37.65;18.68;96598.06;4883805;29;20033;-78
2021/05/12 10:06:02;;;;;;;3.35;2.03;;;;;;;36.63;19.62;96603.28;4873219;29;20024;-79
2021/05/12 10:08:32;;;;;;;4.55;2.15;;;;;;;37.03;19.87;96605.09;4866218;29;20036;-79
2021/05/12 10:11:02;;;;;;;4.63;1.97;;;;;;;38.24;18.83;96604.28;4874349;29;20100;-79
2021/05/12 10:13:30;;;;;;;6.30;1.90;;;;;;;38.89;17.65;96591.63;4879034;29;20092;-77
2021/05/12 10:15:56;;;;;;;5.75;1.90;;;;;;;40.08;16.88;96597.78;4880754;29;20408;-78
2021/05/12 10:18:21;;;;;;;3.80;2.22;;;;;;;40.45;16.45;96587.63;4867215;29;20024;-78
2021/05/12 10:20:47;;;;;;;7.95;2.03;;;;;;;40.63;16.99;96600.78;4875352;29;20037;-78
2021/05/12 10:23:13;;;;;;;16.38;2.90;;;;;;;42.00;16.55;96581.81;4880517;29;20096;-78
2021/05/12 10:25:39;;;;;;;4.20;1.83;;;;;;;41.69;16.24;96587.31;4881828;29;20039;-78
2021/05/12 10:28:07;;;;;;;6.47;2.65;;;;;;;39.37;17.52;96572.00;4864829;29;20036;-78
2021/05/12 10:30:33;;;;;;;5.68;2.08;;;;;;;39.28;18.03;96573.81;4887755;29;20021;-78
2021/05/12 10:32:59;;;;;;;7.25;3.90;;;;;;;38.30;19.49;96582.75;4863061;29;20029;-78
2021/05/12 10:35:43;;;;;;;11.02;2.50;;;;;;;38.24;19.84;96589.50;4874460;29;20037;-78
2021/05/12 10:38:30;;;;;;;5.20;2.20;;;;;;;38.59;20.03;96585.53;4873412;29;20562;-77
2021/05/12 10:40:55;;;;;;;6.32;2.83;;;;;;;39.62;19.19;96587.59;4872887;29;20484;-77
2021/05/12 10:48:47;;;;;;;7.88;2.35;;;;;;;38.90;19.71;96576.53;4880625;29;20484;-77
2021/05/12 10:51:26;;;;;;;6.45;2.30;;;;;;;37.03;22.17;96579.16;4863342;29;20469;-78
2021/05/12 10:53:54;;;;;;;7.05;2.00;;;;;;;35.10;23.79;96580.34;4870599;29;20033;-77
2021/05/12 10:56:33;;;;;;;8.48;2.38;;;;;;;34.01;25.48;96583.03;4870737;29;20414;-78
2021/05/12 10:59:00;;;;;;;9.48;2.70;;;;;;;33.58;25.61;96584.03;4847490;29;20060;-77
2021/05/12 11:01:28;;;;;;;8.70;2.30;;;;;;;33.65;26.16;96576.34;4872043;29;20053;-76
2021/05/12 11:03:53;;;;;;;8.32;2.53;;;;;;;33.58;25.91;96578.47;4876442;29;20036;-77
2021/05/12 11:06:19;;;;;;;9.15;3.10;;;;;;;33.44;26.22;96580.81;4881155;29;20087;-77
2021/05/12 11:09:10;;;;;;;7.95;2.05;;;;;;;33.15;26.74;96571.13;4860289;29;20039;-78
2021/05/12 11:11:39;;;;;;;5.35;2.58;;;;;;;32.77;28.11;96574.81;4878210;29;20025;-77
2021/05/12 11:14:31;;;;;;;11.93;2.25;;;;;;;32.90;27.87;96568.03;4862900;29;20033;-76
2021/05/12 11:17:09;;;;;;;9.63;3.22;;;;;;;33.06;26.20;96556.88;4857851;29;20039;-78
2021/05/12 11:19:45;;;;;;;15.25;2.65;;;;;;;32.85;26.88;96554.13;4898162;29;20029;-76
2021/05/12 11:33:29;;;;;;;83.47;4.88;;;;;;;31.63;28.97;96568.09;4872321;29;20057;-77
2021/05/12 11:38:53;;;;;;;14.45;2.47;;;;;;;32.10;28.72;96552.00;4870122;29;20076;-78
2021/05/12 11:41:23;;;;;;;8.05;1.95;;;;;;;31.83;29.10;96551.84;4875442;29;20041;-77
2021/05/12 11:43:52;;;;;;;3.38;2.33;;;;;;;32.22;27.57;96545.25;4877373;29;20032;-77
2021/05/12 11:46:19;;;;;;;20.35;3.03;;;;;;;32.03;29.63;96543.03;4853029;29;20183;-76
2021/05/12 11:48:52;;;;;;;36.17;3.65;;;;;;;31.75;29.42;96537.63;4864636;29;20172;-76
2021/05/12 11:51:24;;;;;;;14.82;3.83;;;;;;;33.05;28.01;96546.03;4882240;29;20096;-77
2021/05/12 11:53:49;;;;;;;7.43;2.33;;;;;;;33.51;26.46;96531.53;4888076;29;20497;-77